Time;durP1;ratioP1;P1;durP2;ratioP2;P2;SDS_P1;SDS_P2;PMS_P1;PMS_P2;Temp;Humidity;BMP_temperature;BMP_pressure;BME280_temperature;BME280_humidity;BME280_pressure;Samples;Min_cycle;Max_cycle;Signal;HPM_P1;HPM_P2
2021/12/18 00:02:02;;;;;;;12.52;7.18;;;;;;;4.81;89.88;103211.91;7394119;19;20018;-66
2021/12/18 00:04:31;;;;;;;13.65;7.38;;;;;;;4.83;89.65;103218.06;7392621;19;20360;-66
2021/12/18 00:07:01;;;;;;;13.35;6.20;;;;;;;4.84;89.75;103205.13;7392677;19;20041;-66
2021/12/18 00:09:32;;;;;;;15.02;6.75;;;;;;;4.83;89.50;103199.88;7394798;19;20027;-66
2021/12/18 00:12:00;;;;;;;15.20;7.15;;;;;;;4.83;89.29;103198.13;7392947;19;20092;-66
2021/12/18 00:14:29;;;;;;;13.23;6.82;;;;;;;4.82;89.20;103198.09;7391667;19;20027;-66
2021/12/18 00:16:58;;;;;;;13.63;7.07;;;;;;;4.78;88.92;103201.34;7394297;19;20031;-66
2021/12/18 00:19:27;;;;;;;14.32;7.35;;;;;;;4.75;88.95;103201.25;7393893;19;20492;-66
2021/12/18 00:21:55;;;;;;;16.35;6.75;;;;;;;4.71;89.29;103198.53;7393852;19;20010;-66
2021/12/18 00:24:26;;;;;;;9.80;6.03;;;;;;;4.70;89.73;103199.34;7392077;19;20031;-66
2021/12/18 00:26:55;;;;;;;7.63;4.68;;;;;;;4.65;88.71;103200.88;7395215;19;20019;-66
2021/12/18 00:29:23;;;;;;;11.68;5.22;;;;;;;4.65;89.30;103205.16;7398849;19;20014;-66
2021/12/18 00:31:51;;;;;;;6.68;4.35;;;;;;;4.61;89.55;103204.13;7401482;19;20038;-65
2021/12/18 00:34:20;;;;;;;7.63;4.40;;;;;;;4.59;89.57;103200.59;7400285;19;20026;-65
2021/12/18 00:36:48;;;;;;;4.70;3.30;;;;;;;4.58;89.56;103188.41;7401135;19;20014;-65
2021/12/18 00:39:17;;;;;;;4.80;2.88;;;;;;;4.54;89.13;103195.19;7401040;19;20018;-65
2021/12/18 00:42:01;;;;;;;2.25;1.95;;;;;;;4.43;87.64;103206.84;7400988;19;20026;-65
2021/12/18 00:44:29;;;;;;;3.35;1.65;;;;;;;4.42;88.11;103201.59;7400226;19;20019;-66
2021/12/18 00:46:57;;;;;;;1.75;1.10;;;;;;;4.39;88.64;103187.63;7400978;19;20030;-65
2021/12/18 00:49:25;;;;;;;2.65;1.20;;;;;;;4.37;88.96;103194.47;7400830;19;20014;-65
2021/12/18 00:51:53;;;;;;;1.38;1.23;;;;;;;4.33;89.57;103196.88;7400648;19;20014;-65
2021/12/18 00:54:21;;;;;;;2.05;1.38;;;;;;;4.33;89.70;103197.75;7399727;19;20026;-66
2021/12/18 00:56:52;;;;;;;2.60;1.00;;;;;;;4.30;89.83;103196.75;7398095;19;20018;-66
2021/12/18 00:59:20;;;;;;;1.48;1.00;;;;;;;4.30;90.28;103195.03;7398011;19;20044;-66
2021/12/18 01:01:49;;;;;;;1.25;1.08;;;;;;;4.29;90.16;103190.66;7397171;19;20014;-66
2021/12/18 01:04:18;;;;;;;1.85;1.30;;;;;;;4.28;90.37;103191.47;7397068;19;20015;-66
2021/12/18 01:06:46;;;;;;;3.45;1.33;;;;;;;4.26;90.68;103194.81;7400225;19;20019;-66
2021/12/18 01:09:16;;;;;;;3.15;1.20;;;;;;;4.23;90.71;103199.09;7396758;19;20501;-66
2021/12/18 01:11:46;;;;;;;1.80;1.08;;;;;;;4.26;90.91;103197.41;7400599;19;20024;-66
2021/12/18 01:14:35;;;;;;;2.28;1.40;;;;;;;4.26;91.25;103200.94;7396873;19;20007;-66
2021/12/18 01:25:07;;;;;;;3.35;2.35;;;;;;;4.29;91.62;103197.56;7398185;19;20014;-66
2021/12/18 01:27:35;;;;;;;2.95;1.85;;;;;;;4.30;91.41;103207.16;7399633;19;20014;-66
2021/12/18 01:30:10;;;;;;;3.10;1.50;;;;;;;4.30;91.56;103209.75;7399602;19;20027;-66
2021/12/18 01:32:39;;;;;;;4.30;2.00;;;;;;;4.31;91.75;103209.81;7399100;19;20500;-66
2021/12/18 01:35:08;;;;;;;2.58;1.60;;;;;;;4.30;91.79;103215.81;7397787;19;20035;-66
2021/12/18 01:37:37;;;;;;;4.05;1.83;;;;;;;4.30;91.69;103210.63;7398116;19;20021;-66
2021/12/18 01:40:07;;;;;;;3.35;1.58;;;;;;;4.30;91.86;103215.81;7396969;19;20018;-66
2021/12/18 01:45:25;;;;;;;3.70;1.98;;;;;;;4.32;92.12;103206.41;7397950;19;20040;-66
2021/12/18 01:53:20;;;;;;;5.35;2.45;;;;;;;4.38;92.46;103200.56;7398886;19;20018;-65
2021/12/18 01:55:50;;;;;;;3.20;1.90;;;;;;;4.38;92.44;103201.44;7396689;19;20027;-64
2021/12/18 01:58:22;;;;;;;3.38;2.13;;;;;;;4.39;92.52;103190.22;7396590;19;20409;-66
2021/12/18 02:00:55;;;;;;;3.65;2.05;;;;;;;4.39;92.55;103174.63;7396660;19;20040;-65
2021/12/18 02:03:23;;;;;;;4.20;2.05;;;;;;;4.38;92.79;103167.66;7397703;19;20027;-65
2021/12/18 02:05:53;;;;;;;3.47;2.15;;;;;;;4.36;92.82;103165.81;7396234;19;20022;-65
2021/12/18 02:08:22;;;;;;;3.53;2.33;;;;;;;4.33;92.95;103156.16;7396337;19;20034;-65
2021/12/18 02:10:56;;;;;;;3.55;2.33;;;;;;;4.31;92.95;103157.84;7398127;19;20025;-65
2021/12/18 02:14:09;;;;;;;5.53;3.15;;;;;;;4.27;93.32;103161.09;7399623;19;20010;-65
2021/12/18 02:19:49;;;;;;;3.65;2.63;;;;;;;4.28;93.40;103160.28;7397958;19;20003;-65
2021/12/18 02:22:24;;;;;;;5.65;3.33;;;;;;;4.28;93.30;103164.59;7397440;19;20026;-66
2021/12/18 02:24:52;;;;;;;5.65;2.90;;;;;;;4.29;93.31;103156.00;7396218;19;20366;-66
2021/12/18 02:27:20;;;;;;;6.38;3.10;;;;;;;4.29;93.30;103163.78;7395692;19;20019;-66
2021/12/18 02:29:48;;;;;;;8.00;3.50;;;;;;;4.30;93.42;103162.97;7397427;19;20019;-65
2021/12/18 02:32:20;;;;;;;7.22;3.70;;;;;;;4.31;93.46;103162.13;7397000;19;20563;-65
2021/12/18 02:34:53;;;;;;;6.45;3.10;;;;;;;4.31;93.64;103168.22;7395531;19;20014;-66
2021/12/18 02:37:35;;;;;;;7.93;3.15;;;;;;;4.33;93.46;103166.56;7397588;19;20029;-66
2021/12/18 02:42:44;;;;;;;7.57;3.20;;;;;;;4.36;93.57;103168.41;7396745;19;20014;-66
2021/12/18 02:45:13;;;;;;;9.57;3.95;;;;;;;4.36;93.68;103169.31;7395138;19;20039;-66
2021/12/18 02:47:42;;;;;;;6.97;3.80;;;;;;;4.37;93.79;103162.38;7396864;19;20022;-66
2021/12/18 02:50:11;;;;;;;14.43;4.45;;;;;;;4.37;93.53;103158.09;7394174;19;20483;-66
2021/12/18 02:52:42;;;;;;;10.40;4.93;;;;;;;4.37;93.85;103158.09;7396600;19;20018;-66
2021/12/18 02:55:10;;;;;;;10.15;4.85;;;;;;;4.38;93.74;103158.97;7395482;19;20018;-66
2021/12/18 02:57:39;;;;;;;11.88;5.03;;;;;;;4.37;94.00;103158.09;7394425;19;20483;-66
2021/12/18 03:00:08;;;;;;;14.00;6.40;;;;;;;4.35;93.95;103153.66;7396505;19;20014;-66
2021/12/18 03:02:41;;;;;;;13.63;5.55;;;;;;;4.37;94.05;103152.00;7396103;19;20022;-66
2021/12/18 03:05:14;;;;;;;14.13;6.38;;;;;;;4.36;94.12;103150.22;7395373;19;20014;-66
2021/12/18 03:07:45;;;;;;;15.05;5.85;;;;;;;4.34;94.10;103152.75;7396730;19;20010;-66
2021/12/18 03:23:46;;;;;;;14.10;6.55;;;;;;;4.31;94.79;103136.13;7394864;19;20006;-66
2021/12/18 03:26:14;;;;;;;13.98;5.78;;;;;;;4.31;94.69;103136.13;7395513;19;20479;-66
2021/12/18 03:28:43;;;;;;;10.80;5.40;;;;;;;4.32;94.84;103135.31;7394093;19;20014;-65
2021/12/18 03:31:11;;;;;;;14.20;6.07;;;;;;;4.31;94.87;103136.13;7395618;19;20010;-66
2021/12/18 03:33:40;;;;;;;14.43;5.72;;;;;;;4.32;95.04;103122.31;7395293;19;20022;-65
2021/12/18 03:36:08;;;;;;;12.57;5.75;;;;;;;4.30;95.03;103124.88;7393758;19;20040;-66
2021/12/18 03:38:37;;;;;;;12.35;6.05;;;;;;;4.33;95.22;103126.69;7395213;19;20025;-65
2021/12/18 03:41:07;;;;;;;9.15;4.80;;;;;;;4.34;95.22;103137.16;7393296;19;20487;-66
2021/12/18 03:43:36;;;;;;;15.00;7.10;;;;;;;4.34;95.49;103125.88;7394782;19;20043;-66
2021/12/18 03:46:04;;;;;;;16.25;6.90;;;;;;;4.33;95.32;103124.09;7395185;19;20019;-66
2021/12/18 03:48:32;;;;;;;13.68;6.47;;;;;;;4.33;95.44;103129.31;7395216;19;20015;-66
2021/12/18 03:51:00;;;;;;;13.38;6.55;;;;;;;4.34;95.33;103121.56;7395091;19;20035;-66
2021/12/18 03:53:28;;;;;;;14.07;5.85;;;;;;;4.35;95.54;103119.88;7394806;19;20014;-65
2021/12/18 03:55:56;;;;;;;12.60;5.57;;;;;;;4.37;95.42;103119.09;7392899;19;20019;-66
2021/12/18 03:58:27;;;;;;;13.82;6.13;;;;;;;4.38;95.56;103122.59;7392932;19;20031;-65
2021/12/18 04:00:55;;;;;;;24.02;11.23;;;;;;;4.39;95.40;103130.44;7398195;19;20039;-65
2021/12/18 04:03:24;;;;;;;43.72;19.15;;;;;;;4.39;95.69;103130.44;7401480;19;20023;-65
2021/12/18 04:05:52;;;;;;;32.42;14.45;;;;;;;4.35;95.73;103123.34;7398932;19;20346;-65
2021/12/18 04:08:20;;;;;;;18.63;9.13;;;;;;;4.39;95.77;103130.44;7402185;19;20015;-65
2021/12/18 04:10:48;;;;;;;18.70;8.52;;;;;;;4.39;95.87;103130.44;7401954;19;20028;-66
2021/12/18 04:13:17;;;;;;;15.38;6.63;;;;;;;4.38;95.82;103123.44;7398861;19;20370;-66
2021/12/18 04:15:47;;;;;;;16.33;6.32;;;;;;;4.39;95.92;103133.03;7398727;19;20070;-65
2021/12/18 04:18:16;;;;;;;16.27;7.85;;;;;;;4.40;96.05;103126.16;7399356;19;20377;-66
2021/12/18 04:20:44;;;;;;;13.98;6.90;;;;;;;4.40;95.84;103127.03;7401471;19;20385;-65
2021/12/18 04:23:12;;;;;;;17.00;7.20;;;;;;;4.42;95.99;103124.47;7401399;19;20018;-66
2021/12/18 04:25:40;;;;;;;15.48;7.15;;;;;;;4.42;95.92;103121.88;7398712;19;20027;-66
2021/12/18 04:28:09;;;;;;;12.77;6.82;;;;;;;4.44;96.13;103121.97;7401752;19;20018;-65
2021/12/18 04:30:37;;;;;;;15.35;6.68;;;;;;;4.44;95.88;103121.97;7401600;19;20031;-65
2021/12/18 04:33:08;;;;;;;11.00;5.85;;;;;;;4.45;96.06;103118.53;7398709;19;20024;-65
2021/12/18 04:35:36;;;;;;;11.52;5.28;;;;;;;4.43;96.23;103112.38;7399100;19;20019;-66
2021/12/18 04:38:05;;;;;;;13.00;5.07;;;;;;;4.50;96.09;103114.41;7398632;19;20015;-65
2021/12/18 04:40:34;;;;;;;12.60;4.90;;;;;;;4.51;96.11;103116.19;7398517;19;20019;-65
2021/12/18 04:43:03;;;;;;;12.52;5.68;;;;;;;4.52;96.19;103111.03;7398401;19;20018;-65
2021/12/18 04:45:32;;;;;;;11.73;5.90;;;;;;;4.54;95.90;103114.59;7398720;19;20023;-67
2021/12/18 04:48:00;;;;;;;12.32;5.65;;;;;;;4.56;96.17;103117.25;7400928;19;20018;-67
2021/12/18 04:50:31;;;;;;;10.23;4.82;;;;;;;4.58;96.28;103113.00;7398319;19;20106;-67
2021/12/18 04:52:59;;;;;;;10.10;4.82;;;;;;;4.57;96.26;103103.44;7400376;19;20499;-66
2021/12/18 04:55:27;;;;;;;9.48;5.07;;;;;;;4.60;96.08;103108.78;7398401;19;20022;-66
2021/12/18 04:57:55;;;;;;;11.57;5.07;;;;;;;4.60;96.02;103108.78;7400225;19;20436;-66
2021/12/18 05:00:29;;;;;;;14.82;6.25;;;;;;;4.62;96.26;103106.22;7400374;19;20018;-66
2021/12/18 05:03:01;;;;;;;15.90;7.68;;;;;;;4.63;96.13;103102.81;7398406;19;20019;-66
2021/12/18 05:05:32;;;;;;;15.18;8.23;;;;;;;4.64;96.03;103101.97;7397795;19;20018;-65
2021/12/18 05:08:00;;;;;;;12.98;7.95;;;;;;;4.62;96.11;103107.09;7400762;19;20023;-66
2021/12/18 05:10:29;;;;;;;10.60;5.82;;;;;;;4.64;96.04;103107.16;7400126;19;20019;-65
2021/12/18 05:12:57;;;;;;;11.15;6.25;;;;;;;4.62;96.11;103099.31;7395335;19;20428;-66
2021/12/18 05:15:26;;;;;;;11.32;6.25;;;;;;;4.61;96.33;103104.44;7396690;19;20015;-66
2021/12/18 05:17:54;;;;;;;11.57;6.88;;;;;;;4.61;96.32;103105.31;7399898;19;20022;-66
2021/12/18 05:20:23;;;;;;;14.30;6.45;;;;;;;4.61;96.22;103105.31;7399855;19;20040;-66
2021/12/18 05:22:53;;;;;;;11.32;6.50;;;;;;;4.61;96.17;103105.31;7399548;19;20041;-65
2021/12/18 05:25:22;;;;;;;10.52;5.68;;;;;;;4.61;96.44;103105.31;7396498;19;20549;-66
2021/12/18 05:27:50;;;;;;;10.40;6.43;;;;;;;4.61;96.44;103104.44;7399206;19;20015;-65
2021/12/18 05:30:18;;;;;;;9.48;5.78;;;;;;;4.59;96.20;103098.28;7396535;19;20542;-67
2021/12/18 05:32:47;;;;;;;9.77;5.78;;;;;;;4.60;96.47;103105.28;7396921;19;20014;-65
2021/12/18 05:35:17;;;;;;;11.48;6.45;;;;;;;4.58;96.53;103094.81;7396957;19;20088;-66
2021/12/18 05:37:48;;;;;;;11.75;5.57;;;;;;;4.59;96.34;103101.78;7399252;19;20010;-66
2021/12/18 05:40:22;;;;;;;10.30;5.40;;;;;;;4.57;96.58;103095.63;7399490;19;20039;-66
2021/12/18 05:42:52;;;;;;;8.25;5.45;;;;;;;4.58;96.68;103102.63;7397410;19;20022;-66
2021/12/18 05:45:20;;;;;;;7.97;4.43;;;;;;;4.57;96.58;103104.34;7396975;19;20074;-66
2021/12/18 05:47:49;;;;;;;8.45;4.70;;;;;;;4.59;96.77;103113.88;7398590;19;20425;-66
2021/12/18 05:50:21;;;;;;;11.00;5.32;;;;;;;4.60;96.88;103118.28;7396802;19;20014;-66
2021/12/18 05:52:50;;;;;;;10.30;4.63;;;;;;;4.60;96.64;103120.88;7397227;19;20086;-66
2021/12/18 05:55:23;;;;;;;9.98;4.25;;;;;;;4.60;96.91;103113.06;7396475;19;20027;-66
2021/12/18 05:57:51;;;;;;;11.35;5.10;;;;;;;4.59;96.72;103107.00;7398826;19;20021;-66
2021/12/18 06:00:21;;;;;;;7.95;4.07;;;;;;;4.60;96.75;103108.78;7396351;19;20074;-66
2021/12/18 06:02:49;;;;;;;9.88;5.00;;;;;;;4.60;96.89;103108.78;7396474;19;20018;-66
2021/12/18 06:05:17;;;;;;;12.10;4.95;;;;;;;4.62;96.97;103114.03;7395814;19;20507;-66
2021/12/18 06:07:55;;;;;;;9.32;4.80;;;;;;;4.61;96.81;103112.25;7396259;19;20026;-66
2021/12/18 06:10:33;;;;;;;28.55;14.85;;;;;;;4.58;96.94;103102.63;7398116;19;20483;-66
2021/12/18 06:13:03;;;;;;;11.65;6.28;;;;;;;4.62;97.05;103111.44;7397897;19;20509;-66
2021/12/18 06:15:32;;;;;;;19.15;9.95;;;;;;;4.63;96.94;103113.22;7395911;19;20011;-66
2021/12/18 06:18:00;;;;;;;11.57;5.85;;;;;;;4.63;96.96;103116.69;7396084;19;20022;-66
2021/12/18 06:20:30;;;;;;;16.63;7.35;;;;;;;4.64;96.96;103112.38;7397650;19;20074;-68
2021/12/18 06:22:59;;;;;;;10.95;5.80;;;;;;;4.63;97.33;103108.88;7397597;19;20040;-65
2021/12/18 06:25:30;;;;;;;9.63;5.25;;;;;;;4.62;97.41;103114.91;7395600;19;20241;-66
2021/12/18 06:27:58;;;;;;;9.00;4.93;;;;;;;4.62;97.26;103108.84;7397819;19;20078;-64
2021/12/18 06:30:27;;;;;;;9.18;4.22;;;;;;;4.62;97.30;103106.22;7395626;19;20027;-65
2021/12/18 06:32:55;;;;;;;11.43;4.50;;;;;;;4.63;97.52;103108.00;7395336;19;20018;-65
2021/12/18 06:35:23;;;;;;;7.88;3.97;;;;;;;4.62;97.39;103108.84;7395584;19;20035;-65
2021/12/18 06:37:51;;;;;;;9.77;4.25;;;;;;;4.60;97.54;103095.78;7397383;19;20014;-65
2021/12/18 06:40:19;;;;;;;10.60;5.40;;;;;;;4.61;97.83;103105.31;7396456;19;20014;-66
2021/12/18 06:42:50;;;;;;;10.13;6.57;;;;;;;4.60;97.68;103093.19;7398238;19;20027;-65
2021/12/18 06:45:18;;;;;;;12.00;6.95;;;;;;;4.59;97.96;103086.19;7395860;19;20098;-65
2021/12/18 06:47:46;;;;;;;11.80;6.38;;;;;;;4.56;97.94;103084.38;7395793;19;20018;-66
2021/12/18 06:50:14;;;;;;;9.95;5.45;;;;;;;4.57;97.93;103083.53;7396786;19;20035;-65
2021/12/18 06:52:42;;;;;;;6.55;3.88;;;;;;;4.57;98.18;103082.63;7396601;19;20082;-64
2021/12/18 06:55:11;;;;;;;8.27;4.50;;;;;;;4.56;98.14;103075.66;7394824;19;20081;-65
2021/12/18 06:57:39;;;;;;;13.57;5.18;;;;;;;4.55;98.10;103079.09;7396562;19;20074;-66
2021/12/18 07:00:13;;;;;;;9.10;4.53;;;;;;;4.55;98.31;103081.72;7396397;19;20015;-66
2021/12/18 07:02:41;;;;;;;9.13;4.75;;;;;;;4.54;98.39;103083.41;7395226;19;20023;-65
2021/12/18 07:05:11;;;;;;;9.07;4.28;;;;;;;4.53;98.76;103071.22;7394442;19;20019;-66
2021/12/18 07:07:39;;;;;;;7.15;4.15;;;;;;;4.53;98.65;103075.53;7394746;19;20406;-65
2021/12/18 07:10:10;;;;;;;9.02;4.13;;;;;;;4.54;98.80;103074.72;7396103;19;20091;-64
2021/12/18 07:12:38;;;;;;;9.45;4.20;;;;;;;4.54;99.04;103078.19;7396475;19;20035;-64
2021/12/18 07:15:12;;;;;;;11.52;5.43;;;;;;;4.53;99.02;103072.94;7393671;19;20487;-65
2021/12/18 07:17:41;;;;;;;9.77;5.15;;;;;;;4.56;99.29;103075.66;7396669;19;20035;-65
2021/12/18 07:20:10;;;;;;;10.95;5.10;;;;;;;4.56;99.63;103075.66;7395808;19;20019;-65
2021/12/18 07:22:39;;;;;;;9.30;5.10;;;;;;;4.57;99.37;103064.44;7395992;19;20031;-65
2021/12/18 07:25:08;;;;;;;9.43;6.10;;;;;;;4.59;99.43;103069.69;7394153;19;20526;-66
2021/12/18 07:27:36;;;;;;;12.52;6.10;;;;;;;4.59;99.12;103060.19;7394098;19;20019;-66
2021/12/18 07:30:06;;;;;;;11.52;6.25;;;;;;;4.61;99.57;103066.31;7393903;19;20018;-65
2021/12/18 07:32:37;;;;;;;8.23;4.93;;;;;;;4.62;99.49;103060.31;7394827;19;20014;-65
2021/12/18 07:35:06;;;;;;;12.90;7.32;;;;;;;4.64;99.78;103058.66;7393004;19;20022;-65
2021/12/18 07:37:35;;;;;;;12.73;6.93;;;;;;;4.65;99.60;103060.44;7392924;19;20492;-65
2021/12/18 07:40:03;;;;;;;12.77;7.30;;;;;;;4.66;99.68;103053.50;7395278;19;20022;-66
2021/12/18 07:42:31;;;;;;;13.52;7.72;;;;;;;4.68;99.74;103054.47;7395295;19;20077;-65
2021/12/18 07:44:59;;;;;;;21.00;11.00;;;;;;;4.69;99.64;103056.25;7394246;19;20095;-66
2021/12/18 07:47:37;;;;;;;21.55;11.48;;;;;;;4.70;99.50;103052.81;7393413;19;20019;-65
2021/12/18 07:50:08;;;;;;;17.15;8.75;;;;;;;4.66;99.59;103050.91;7393636;19;20085;-66
2021/12/18 07:52:44;;;;;;;16.02;8.73;;;;;;;4.71;99.81;103065.91;7393602;19;20018;-66
2021/12/18 07:55:12;;;;;;;14.60;7.60;;;;;;;4.72;99.96;103069.38;7393774;19;20031;-67
2021/12/18 07:57:40;;;;;;;16.50;8.85;;;;;;;4.71;99.88;103063.28;7392712;19;20441;-67
2021/12/18 08:00:12;;;;;;;16.90;8.65;;;;;;;4.73;100.00;103072.03;7392949;19;20023;-67
2021/12/18 08:02:43;;;;;;;16.08;8.18;;;;;;;4.72;100.00;103064.16;7393141;19;20475;-67
2021/12/18 08:05:11;;;;;;;14.63;8.05;;;;;;;4.72;100.00;103065.03;7393341;19;20079;-67
2021/12/18 08:07:40;;;;;;;19.27;8.68;;;;;;;4.71;100.00;103071.09;7392667;19;20014;-66
2021/12/18 08:10:09;;;;;;;14.35;8.13;;;;;;;4.71;100.00;103060.69;7394389;19;20015;-66
2021/12/18 08:12:37;;;;;;;17.13;8.30;;;;;;;4.73;100.00;103060.75;7393884;19;20035;-66
2021/12/18 08:15:07;;;;;;;19.50;9.48;;;;;;;4.73;100.00;103050.34;7391725;19;20086;-65
2021/12/18 08:17:36;;;;;;;17.52;9.75;;;;;;;4.72;100.00;103046.84;7393737;19;20497;-65
2021/12/18 08:20:08;;;;;;;18.38;10.05;;;;;;;4.71;100.00;103049.38;7391724;19;20500;-66
2021/12/18 08:22:36;;;;;;;18.00;10.13;;;;;;;4.70;100.00;103042.41;7392412;19;20070;-66
2021/12/18 08:25:05;;;;;;;18.27;9.82;;;;;;;4.67;100.00;103050.97;7392559;19;20085;-66
2021/12/18 08:27:33;;;;;;;18.05;9.25;;;;;;;4.65;100.00;103044.84;7394248;19;20027;-66
2021/12/18 08:30:01;;;;;;;20.25;10.65;;;;;;;4.64;100.00;103044.75;7394066;19;20023;-65
2021/12/18 08:32:29;;;;;;;21.95;10.10;;;;;;;4.63;100.00;103046.47;7393954;19;20014;-66
2021/12/18 08:34:57;;;;;;;34.80;16.40;;;;;;;4.64;100.00;103043.06;7392577;19;20035;-66
2021/12/18 08:37:28;;;;;;;22.30;9.45;;;;;;;4.63;100.00;103038.69;7393724;19;20018;-66
2021/12/18 08:39:56;;;;;;;21.33;9.70;;;;;;;4.62;100.00;103036.91;7391976;19;20023;-66
2021/12/18 08:42:26;;;;;;;17.48;10.13;;;;;;;4.62;100.00;103042.09;7393956;19;20479;-67
2021/12/18 08:44:54;;;;;;;19.98;9.52;;;;;;;4.62;100.00;103036.03;7391153;19;20082;-66
2021/12/18 08:47:22;;;;;;;18.20;9.35;;;;;;;4.63;100.00;103041.28;7394853;19;20019;-66
2021/12/18 08:49:50;;;;;;;18.20;9.35;;;;;;;4.65;100.00;103039.66;7400482;19;20095;-66
2021/12/18 08:52:18;;;;;;;20.58;10.90;;;;;;;4.66;100.00;103030.13;7400716;19;20035;-66
2021/12/18 08:54:49;;;;;;;22.75;13.32;;;;;;;4.67;100.00;103026.69;7399378;19;20475;-66
2021/12/18 08:57:18;;;;;;;22.48;12.43;;;;;;;4.68;100.00;103024.16;7401160;19;20027;-66
2021/12/18 08:59:46;;;;;;;16.88;8.93;;;;;;;4.68;100.00;103018.94;7397616;19;20070;-66
2021/12/18 09:02:14;;;;;;;17.23;9.48;;;;;;;4.70;100.00;103027.72;7400311;19;20074;-66
2021/12/18 09:04:42;;;;;;;19.27;8.65;;;;;;;4.70;100.00;103025.09;7397554;19;20074;-66
2021/12/18 09:07:11;;;;;;;18.00;9.65;;;;;;;4.71;100.00;103029.47;7397854;19;20018;-66
2021/12/18 09:09:41;;;;;;;18.70;9.52;;;;;;;4.73;100.00;103030.41;7400159;19;20028;-66
2021/12/18 09:12:14;;;;;;;20.30;10.73;;;;;;;4.74;100.00;103039.13;7399986;19;20026;-66
2021/12/18 09:14:42;;;;;;;17.95;9.98;;;;;;;4.73;100.00;103027.81;7397348;19;20110;-66
2021/12/18 09:17:11;;;;;;;18.67;10.02;;;;;;;4.72;100.00;103025.16;7397869;19;20393;-66
2021/12/18 09:19:40;;;;;;;17.55;9.43;;;;;;;4.72;100.00;103030.34;7399328;19;20563;-66
2021/12/18 09:22:09;;;;;;;19.65;9.85;;;;;;;4.71;100.00;103029.47;7399518;19;20386;-66
2021/12/18 09:24:38;;;;;;;18.73;10.07;;;;;;;4.71;100.00;103028.56;7396552;19;20074;-65
2021/12/18 09:27:07;;;;;;;19.30;10.13;;;;;;;4.71;100.00;103026.88;7397139;19;20026;-65
2021/12/18 09:29:38;;;;;;;18.70;9.82;;;;;;;4.67;100.00;103022.38;7398555;19;20497;-66
2021/12/18 09:32:07;;;;;;;20.02;10.48;;;;;;;4.72;100.00;103014.75;7399358;19;20082;-65
2021/12/18 09:34:35;;;;;;;15.68;8.90;;;;;;;4.71;100.00;103015.56;7396890;19;20090;-66
2021/12/18 09:37:04;;;;;;;18.35;9.80;;;;;;;4.73;99.94;103006.13;7396448;19;20412;-66
2021/12/18 09:39:32;;;;;;;17.50;9.27;;;;;;;4.73;99.96;103012.22;7399060;19;20010;-66
2021/12/18 09:42:01;;;;;;;17.55;9.27;;;;;;;4.73;100.00;103004.41;7398581;19;20505;-66
2021/12/18 09:44:31;;;;;;;16.95;8.43;;;;;;;4.76;100.00;103001.03;7396780;19;20040;-66
2021/12/18 09:47:03;;;;;;;14.20;7.80;;;;;;;4.77;99.89;102995.00;7397141;19;20052;-66
2021/12/18 09:49:32;;;;;;;16.85;8.48;;;;;;;4.77;99.95;102992.41;7399169;19;20083;-66
2021/12/18 09:52:00;;;;;;;18.88;10.27;;;;;;;4.77;99.89;102983.75;7396650;19;20015;-67
2021/12/18 09:54:28;;;;;;;17.50;11.02;;;;;;;4.77;100.00;102978.53;7397800;19;20036;-66
2021/12/18 09:56:57;;;;;;;16.95;8.85;;;;;;;4.79;99.97;102976.84;7396333;19;20022;-66
2021/12/18 09:59:25;;;;;;;15.15;8.27;;;;;;;4.79;100.00;102980.38;7397356;19;20416;-66
2021/12/18 10:01:53;;;;;;;14.50;8.05;;;;;;;4.81;99.80;102978.69;7398347;19;20090;-68
2021/12/18 10:04:33;;;;;;;12.35;7.25;;;;;;;4.83;99.93;102981.38;7396065;19;20019;-65
2021/12/18 10:07:03;;;;;;;14.95;8.05;;;;;;;4.82;99.99;102980.47;7396623;19;20078;-65
2021/12/18 10:09:37;;;;;;;15.15;7.47;;;;;;;4.83;100.00;102977.03;7395708;19;20482;-66
2021/12/18 10:12:15;;;;;;;15.30;8.15;;;;;;;4.85;100.00;102974.50;7398674;19;20018;-66
2021/12/18 10:14:46;;;;;;;13.07;6.88;;;;;;;4.85;99.71;102965.00;7397022;19;20015;-66
2021/12/18 10:17:25;;;;;;;12.85;7.95;;;;;;;4.86;99.79;102966.75;7396235;19;20074;-67
2021/12/18 10:20:16;;;;;;;11.75;6.47;;;;;;;4.88;99.50;102972.03;7395471;19;20369;-67
2021/12/18 10:22:49;;;;;;;11.07;6.10;;;;;;;4.88;99.40;102966.81;7398123;19;20069;-67
2021/12/18 10:25:19;;;;;;;10.38;4.90;;;;;;;4.89;99.41;102965.97;7396095;19;20022;-68
2021/12/18 10:27:57;;;;;;;8.93;4.43;;;;;;;4.91;99.67;102972.13;7395429;19;20074;-66
2021/12/18 10:30:25;;;;;;;9.23;4.93;;;;;;;4.93;99.42;102967.88;7398495;19;20014;-66
2021/12/18 10:33:03;;;;;;;9.48;4.80;;;;;;;4.94;99.46;102958.34;7396745;19;20011;-66
2021/12/18 10:35:50;;;;;;;7.93;4.18;;;;;;;4.94;99.60;102969.66;7395536;19;20476;-67
2021/12/18 10:38:43;;;;;;;11.63;6.28;;;;;;;4.96;99.66;102967.97;7397249;19;20015;-67
2021/12/18 10:41:26;;;;;;;7.43;4.82;;;;;;;4.95;99.19;102971.41;7397219;19;20018;-66
2021/12/18 10:43:57;;;;;;;12.57;5.72;;;;;;;4.94;99.68;102951.44;7395017;19;20018;-65
2021/12/18 10:46:25;;;;;;;10.05;5.57;;;;;;;4.97;99.49;102967.16;7394971;19;20035;-65
2021/12/18 10:48:58;;;;;;;10.15;4.80;;;;;;;4.97;99.66;102953.28;7394749;19;20018;-67
2021/12/18 10:51:30;;;;;;;8.68;4.68;;;;;;;4.98;99.94;102947.22;7394727;19;20018;-66
2021/12/18 10:54:04;;;;;;;9.48;4.68;;;;;;;5.00;100.00;102948.16;7394977;19;20026;-66
2021/12/18 10:56:41;;;;;;;7.70;4.70;;;;;;;5.00;100.00;102941.25;7395186;19;20019;-66
2021/12/18 10:59:22;;;;;;;7.95;4.47;;;;;;;5.00;100.00;102951.66;7396807;19;20083;-65
2021/12/18 11:01:54;;;;;;;6.95;4.05;;;;;;;4.99;100.00;102934.28;7396621;19;20035;-66
2021/12/18 11:04:27;;;;;;;6.32;3.67;;;;;;;4.99;100.00;102936.00;7394204;19;20018;-66
2021/12/18 11:06:58;;;;;;;5.38;2.58;;;;;;;5.00;100.00;102930.84;7394447;19;20022;-66
2021/12/18 11:09:31;;;;;;;5.07;2.95;;;;;;;5.00;100.00;102924.75;7395902;19;20035;-66
2021/12/18 11:14:43;;;;;;;5.93;3.50;;;;;;;5.04;100.00;102924.03;7395491;19;20015;-66
2021/12/18 11:17:14;;;;;;;7.60;4.30;;;;;;;5.02;100.00;102916.16;7394832;19;20037;-67
2021/12/18 11:19:44;;;;;;;9.43;6.22;;;;;;;5.03;100.00;102911.84;7394540;19;20028;-66
2021/12/18 11:22:17;;;;;;;11.05;6.13;;;;;;;5.02;100.00;102910.09;7394184;19;20019;-66
2021/12/18 11:24:51;;;;;;;7.70;3.95;;;;;;;5.03;100.00;102909.25;7393797;19;20500;-68
2021/12/18 11:27:20;;;;;;;;;;;;;;;5.01;100.00;102910.94;7395429;19;20095;-67
2021/12/18 11:29:53;;;;;;;4.47;2.40;;;;;;;4.99;100.00;102910.88;7395131;19;19935;-66
2021/12/18 11:32:23;;;;;;;4.45;2.45;;;;;;;4.99;100.00;102900.47;7394616;19;20019;-67
2021/12/18 11:34:54;;;;;;;6.03;3.10;;;;;;;4.98;100.00;102890.88;7393007;19;20433;-66
2021/12/18 11:37:27;;;;;;;5.45;2.75;;;;;;;5.00;100.00;102885.72;7393521;19;20019;-67
2021/12/18 11:40:04;;;;;;;4.03;2.60;;;;;;;5.01;100.00;102883.19;7395580;19;20019;-66
2021/12/18 11:42:34;;;;;;;5.05;2.90;;;;;;;5.03;100.00;102883.22;7393424;19;20511;-66
2021/12/18 11:45:06;;;;;;;8.00;3.95;;;;;;;5.05;100.00;102876.38;7394796;19;20081;-67
2021/12/18 11:47:37;;;;;;;6.45;3.95;;;;;;;5.07;100.00;102874.72;7393956;19;20082;-66
2021/12/18 11:50:09;;;;;;;7.95;4.03;;;;;;;5.08;100.00;102873.91;7394944;19;20102;-66
2021/12/18 11:52:59;;;;;;;9.88;4.60;;;;;;;5.08;100.00;102863.50;7393850;19;20014;-66
2021/12/18 11:55:32;;;;;;;8.07;4.50;;;;;;;5.06;100.00;102860.81;7392826;19;20397;-66
2021/12/18 11:58:02;;;;;;;7.95;4.68;;;;;;;5.07;100.00;102859.09;7394686;19;20421;-67
2021/12/18 12:00:45;;;;;;;6.95;3.45;;;;;;;5.09;100.00;102856.56;7394949;19;20019;-66
2021/12/18 12:03:17;;;;;;;7.17;4.67;;;;;;;5.09;100.00;102846.16;7393156;19;20025;-66
2021/12/18 12:05:49;;;;;;;5.10;3.20;;;;;;;5.13;100.00;102861.03;7392474;19;20023;-66
2021/12/18 12:08:26;;;;;;;7.05;3.78;;;;;;;5.13;100.00;102851.53;7394736;19;20015;-65
2021/12/18 12:11:18;;;;;;;6.82;3.88;;;;;;;5.14;100.00;102849.78;7394676;19;20018;-66
2021/12/18 12:13:54;;;;;;;10.43;5.40;;;;;;;5.15;100.00;102846.34;7392286;19;20037;-66
2021/12/18 12:16:59;;;;;;;8.40;4.72;;;;;;;5.14;100.00;102842.84;7392602;19;20011;-66
2021/12/18 12:19:41;;;;;;;7.07;4.10;;;;;;;5.14;100.00;102855.88;7394046;19;20018;-66
2021/12/18 12:22:12;;;;;;;3.30;2.47;;;;;;;5.13;100.00;102855.81;7398029;19;20333;-66